Tolar, New Mexico
Current Conditions -  °F | °C
As of 5:56 PM on Saturday 25 Oct 2014 (Local Time) from K4MR Reporting Station
Clear Clear  
Wind Chill: 75°   Ceiling: Unl
Heat Index: 75°   Visibility: 10mi
Dew Point: 40°   Wind: 8mph
Humidity: 28%   Direction: 180°S
Pressure: 30.12"   Gusts: NA
Location:  34.3861°N, 104.044°W
Report Text: K4MR 252356Z AUTO 18007KT 10SM CLR 24/04 A3012 RMK AO2 SLP151 T02380043 10280 20238 57011
Loading
Personal Weather Stations






























Interactive Weather Map New forecast layout! Learn more

10-Day Weather Forecast

Advertisements
Track Severe Weather on mobile